Impacts METAR Board
IDs:

KOKC - Oklahoma City/Will R, OK, US

Updated at: 2200 UTC 21 May 2022
Potential Impact None Slight Moderate High
Time 21/10Z 21/11Z 21/12Z 21/13Z 21/14Z 21/15Z 21/16Z 21/17Z 21/18Z 21/19Z 21/20Z 21/21Z 21/22Z
Temp57 56 57 58 58 58 58 59 59 61 61 63 65
Dewpt53 50 49 50 48 47 47 46 46 46 46 46 46
Altim29.83 29.85 29.89 29.92 29.96 29.98 30.01 30.03 30.04 30.05 30.06 30.06 30.06
VIS10 10 10 10 10 10 10 10 10 10 10 10 10
CIG10 17 27 30 29 27 26 28 29 30 33 38 43
CoverOVCOVCOVCOVCOVCOVCOVCOVCOVCOVCOVCOVCBKN
FltCatMVFRMVFRMVFRMVFRMVFRMVFRMVFRMVFRMVFRMVFRVFRVFRVFR
WX-RA------------------------
WDir103602010201020201010101020
WSpd17 18 17 18 20 20 18 16 19 19 17 15 17
WGst26 25 24 23 26 31 24 26 26 24 26 22 25
R13/31
XWnd 14 13 15 15 18 16 16 15 16 16 14 12 15
XGst 21 18 22 19 24 25 22 24 21 20 21 18 23
HWnd -10 -13 -7 -10 -8 -11 -8 -7 -11 -11 -10 -9 -7
HGst -15 -18 -10 -13 -11 -18 -10 -11 -15 -14 -15 -13 -11
R17/35
XWnd 3 -0 6 3 7 3 6 5 3 3 3 3 6
XGst 5 -0 8 4 9 5 8 9 5 4 5 4 9
HWnd -17 -18 -16 -18 -19 -20 -17 -15 -19 -19 -17 -15 -16
HGst -26 -25 -23 -23 -24 -31 -23 -24 -26 -24 -26 -22 -23
R18/36
XWnd 3 -0 6 3 7 3 6 5 3 3 3 3 6
XGst 5 -0 8 4 9 5 8 9 5 4 5 4 9
HWnd -17 -18 -16 -18 -19 -20 -17 -15 -19 -19 -17 -15 -16
HGst -26 -25 -23 -23 -24 -31 -23 -24 -26 -24 -26 -22 -23
Raw hourly METARs
KOKC 210952Z 01017G26KT 10SM -RA BKN010 OVC033 14/12 A2983 RMK AO2 PK WND 02026/0945 RAB50 SLP091 P0000 T01390117
KOKC 211052Z 36018G25KT 10SM OVC017 13/10 A2985 RMK AO2 PK WND 01026/1032 RAE09 SLP097 P0000 T01330100
KOKC 211152Z 02017G24KT 10SM OVC027 14/09 A2989 RMK AO2 PK WND 36028/1057 SLP109 60000 T01390094 10206 20133 53022
KOKC 211303Z 01018G23KT 10SM OVC030 14/10 A2992 RMK AO2 T01440100
KOKC 211359Z 02020G26KT 10SM SCT020 BKN029 OVC050 14/09 A2996 RMK AO2 PK WND 02026/1358 T01440089
KOKC 211452Z 01020G31KT 10SM FEW020 BKN027 OVC050 14/08 A2998 RMK AO2 PK WND 03031/1447 SLP141 T01440083 51029
KOKC 211552Z 02018G24KT 10SM BKN026 OVC050 14/08 A3001 RMK AO2 PK WND 02029/1516 SLP152 T01440083
KOKC 211652Z 02016G26KT 10SM OVC028 15/08 A3003 RMK AO2 PK WND 36028/1631 SLP159 T01500078
KOKC 211752Z 01019G26KT 10SM OVC029 15/08 A3004 RMK AO2 PK WND 01028/1739 SLP165 T01500078 10156 20139 51022
KOKC 211852Z 01019G24KT 10SM OVC030 16/08 A3005 RMK AO2 PK WND 02027/1809 SLP166 T01610078
KOKC 211952Z 01017G26KT 10SM OVC033 16/08 A3006 RMK AO2 PK WND 36029/1920 SLP171 T01610078
KOKC 212052Z 01015G22KT 10SM OVC038 17/08 A3006 RMK AO2 PK WND 01028/2017 SLP174 T01720078 53007
KOKC 212152Z 02017G25KT 10SM BKN043 18/08 A3006 RMK AO2 PK WND 36028/2102 SLP172 T01830078



Page loaded:  22:06 UTC  |   03:06 PM Pacific  |   04:06 PM Mountain  |   05:06 PM Central  |   06:06 PM Eastern

 

ADVISORIES

FORECASTS

FORECASTS

OBSERVATIONS

USER TOOLS

ABOUT US